createdAt,value
2023-03-18T00:01:16.407Z,8.70
2023-03-18T00:03:43.992Z,8.60
2023-03-18T00:06:19.577Z,8.60
2023-03-18T00:08:48.281Z,8.60
2023-03-18T00:11:18.451Z,8.60
2023-03-18T00:13:46.741Z,8.60
2023-03-18T00:16:14.092Z,8.50
2023-03-18T00:18:41.867Z,8.50
2023-03-18T00:21:09.808Z,8.50
2023-03-18T00:23:37.192Z,8.50
2023-03-18T00:26:05.018Z,8.60
2023-03-18T00:28:32.710Z,8.50
2023-03-18T00:31:09.809Z,8.60
2023-03-18T00:33:40.185Z,8.60
2023-03-18T00:36:10.462Z,8.60
2023-03-18T00:38:37.877Z,8.50
2023-03-18T00:41:11.653Z,8.60
2023-03-18T00:43:47.200Z,8.50
2023-03-18T00:46:30.092Z,8.50
2023-03-18T00:49:00.497Z,8.60
2023-03-18T00:51:31.491Z,8.60
2023-03-18T00:54:00.717Z,8.60
2023-03-18T00:56:30.971Z,8.70
2023-03-18T00:58:58.599Z,8.70
2023-03-18T01:01:26.577Z,8.70
2023-03-18T01:03:55.018Z,8.80
2023-03-18T01:06:25.000Z,8.70
2023-03-18T01:08:51.951Z,8.60
2023-03-18T01:11:18.981Z,8.70
2023-03-18T01:13:46.323Z,8.70
2023-03-18T01:16:14.314Z,8.70
2023-03-18T01:18:42.029Z,8.70
2023-03-18T01:21:10.277Z,8.70
2023-03-18T01:23:38.559Z,8.70
2023-03-18T01:26:06.124Z,8.70
2023-03-18T01:28:33.713Z,8.70
2023-03-18T01:31:01.427Z,8.70
2023-03-18T01:33:30.096Z,8.70
2023-03-18T01:36:04.033Z,8.70
2023-03-18T01:38:32.217Z,8.70
2023-03-18T01:41:00.694Z,8.60
2023-03-18T01:43:31.805Z,8.50
2023-03-18T01:46:01.284Z,8.50
2023-03-18T01:48:35.566Z,8.50
2023-03-18T01:51:08.997Z,8.60
2023-03-18T01:53:47.551Z,8.60
2023-03-18T01:56:16.086Z,8.60
2023-03-18T01:58:46.670Z,8.60
2023-03-18T02:01:23.802Z,8.70
2023-03-18T02:03:52.273Z,8.70
2023-03-18T02:06:19.800Z,8.70
2023-03-18T02:08:46.863Z,8.80
2023-03-18T02:11:14.172Z,8.80
2023-03-18T02:13:43.809Z,8.70
2023-03-18T02:16:17.521Z,8.70
2023-03-18T02:18:50.443Z,8.60
2023-03-18T02:21:32.354Z,8.70
2023-03-18T02:24:02.279Z,8.60
2023-03-18T02:26:48.283Z,8.70
2023-03-18T02:29:18.406Z,8.70
2023-03-18T02:31:46.759Z,8.70
2023-03-18T02:34:14.693Z,8.70
2023-03-18T02:36:42.073Z,8.70
2023-03-18T02:39:13.752Z,8.70
2023-03-18T02:41:40.933Z,8.80
2023-03-18T02:44:07.856Z,8.70
2023-03-18T02:46:35.258Z,8.60
2023-03-18T02:49:04.742Z,8.50
2023-03-18T02:51:31.624Z,8.50
2023-03-18T02:54:10.357Z,8.50
2023-03-18T02:56:38.283Z,8.50
2023-03-18T02:59:06.047Z,8.40
2023-03-18T03:01:34.343Z,8.40
2023-03-18T03:04:01.923Z,8.50
2023-03-18T03:06:29.147Z,8.50
2023-03-18T03:08:57.438Z,8.50
2023-03-18T03:11:24.690Z,8.60
2023-03-18T03:13:51.745Z,8.60
2023-03-18T03:16:19.438Z,8.60
2023-03-18T03:18:46.852Z,8.60
2023-03-18T03:21:14.636Z,8.50
2023-03-18T03:23:45.094Z,8.50
2023-03-18T03:26:12.056Z,8.50
2023-03-18T03:28:39.131Z,8.50
2023-03-18T03:31:06.981Z,8.50
2023-03-18T03:33:33.915Z,8.50
2023-03-18T03:36:01.202Z,8.50
2023-03-18T03:38:28.440Z,8.60
2023-03-18T03:40:55.611Z,8.60
2023-03-18T03:43:22.746Z,8.60
2023-03-18T03:45:49.743Z,8.50
2023-03-18T03:48:16.695Z,8.60
2023-03-18T03:50:43.624Z,8.60
2023-03-18T03:53:10.797Z,8.60
2023-03-18T03:55:38.001Z,8.60
2023-03-18T03:58:04.970Z,8.60
2023-03-18T04:00:33.322Z,8.50
2023-03-18T04:03:00.862Z,8.50
2023-03-18T04:05:28.147Z,8.40
2023-03-18T04:07:55.685Z,8.50
2023-03-18T04:10:23.213Z,8.40
2023-03-18T04:12:50.526Z,8.60
2023-03-18T04:15:18.461Z,8.50
2023-03-18T04:17:45.763Z,8.50
2023-03-18T04:20:13.850Z,8.50
2023-03-18T04:22:42.041Z,8.50
2023-03-18T04:25:11.337Z,8.50
2023-03-18T04:27:39.023Z,8.60
2023-03-18T04:30:08.255Z,8.50
2023-03-18T04:32:35.297Z,8.40
2023-03-18T04:35:02.379Z,8.30
2023-03-18T04:37:29.400Z,8.40
2023-03-18T04:39:56.493Z,8.40
2023-03-18T04:42:23.416Z,8.40
2023-03-18T04:44:50.761Z,8.40
2023-03-18T04:47:18.276Z,8.40
2023-03-18T04:49:45.260Z,8.50
2023-03-18T04:52:12.571Z,8.50
2023-03-18T04:54:39.804Z,8.50
2023-03-18T04:57:07.597Z,8.40
2023-03-18T04:59:34.583Z,8.40
2023-03-18T05:02:01.567Z,8.40
2023-03-18T05:04:28.526Z,8.50
2023-03-18T05:06:55.545Z,8.50
2023-03-18T05:09:22.542Z,8.50
2023-03-18T05:11:49.408Z,8.50
2023-03-18T05:14:16.330Z,8.50
2023-03-18T05:16:43.362Z,8.50
2023-03-18T05:19:10.762Z,8.40
2023-03-18T05:21:38.435Z,8.40
2023-03-18T05:24:05.601Z,8.30
2023-03-18T05:26:32.584Z,8.40
2023-03-18T05:28:59.654Z,8.40
2023-03-18T05:31:26.941Z,8.30
2023-03-18T05:33:54.147Z,8.20
2023-03-18T05:36:21.139Z,8.30
2023-03-18T05:38:48.080Z,8.30
2023-03-18T05:41:15.055Z,8.30
2023-03-18T05:43:42.797Z,8.30
2023-03-18T05:46:09.877Z,8.20
2023-03-18T05:48:36.956Z,8.30
2023-03-18T05:51:04.393Z,8.30
2023-03-18T05:53:32.175Z,8.30
2023-03-18T05:55:59.941Z,8.30
2023-03-18T05:58:31.304Z,8.40
2023-03-18T06:01:00.209Z,8.40
2023-03-18T06:03:28.000Z,8.40
2023-03-18T06:05:55.001Z,8.40
2023-03-18T06:08:22.559Z,8.30
2023-03-18T06:10:49.754Z,8.30
2023-03-18T06:13:16.716Z,8.30
2023-03-18T06:15:43.986Z,8.30
2023-03-18T06:18:11.077Z,8.30
2023-03-18T06:20:38.269Z,8.30
2023-03-18T06:23:05.772Z,8.30
2023-03-18T06:25:32.821Z,8.30
2023-03-18T06:28:00.108Z,8.30
2023-03-18T06:30:26.995Z,8.40
2023-03-18T06:32:54.097Z,8.30
2023-03-18T06:35:21.047Z,8.40
2023-03-18T06:37:48.640Z,8.40
2023-03-18T06:40:15.926Z,8.30
2023-03-18T06:42:42.959Z,8.20
2023-03-18T06:45:10.778Z,8.30
2023-03-18T06:47:37.862Z,8.30
2023-03-18T06:50:05.864Z,8.30
2023-03-18T06:52:33.574Z,8.40
2023-03-18T06:55:00.521Z,8.40
2023-03-18T06:57:27.730Z,8.50
2023-03-18T06:59:54.680Z,8.50
2023-03-18T07:02:23.715Z,8.50
2023-03-18T07:04:51.240Z,8.50
2023-03-18T07:07:18.246Z,8.50
2023-03-18T07:09:45.428Z,8.50
2023-03-18T07:12:14.094Z,8.50
2023-03-18T07:14:41.628Z,8.50
2023-03-18T07:17:10.569Z,8.50
2023-03-18T07:19:38.165Z,8.50
2023-03-18T07:22:05.609Z,8.40
2023-03-18T07:24:32.669Z,8.40
2023-03-18T07:26:59.704Z,8.50
2023-03-18T07:29:26.627Z,8.40
2023-03-18T07:31:53.900Z,8.40
2023-03-18T07:34:21.520Z,8.30
2023-03-18T07:36:48.474Z,8.40
2023-03-18T07:39:15.994Z,8.30
2023-03-18T07:41:43.016Z,8.40
2023-03-18T07:44:09.984Z,8.40
2023-03-18T07:46:36.945Z,8.50
2023-03-18T07:49:03.972Z,8.50
2023-03-18T07:51:30.945Z,8.50
2023-03-18T07:53:57.897Z,8.60
2023-03-18T07:56:26.132Z,8.60
2023-03-18T07:58:53.380Z,8.60
2023-03-18T08:01:20.590Z,8.50
2023-03-18T08:03:47.970Z,8.50
2023-03-18T08:06:15.904Z,8.50
2023-03-18T08:08:43.874Z,8.60
2023-03-18T08:11:11.590Z,8.60
2023-03-18T08:13:39.727Z,8.70
2023-03-18T08:16:07.250Z,8.60
2023-03-18T08:18:34.586Z,8.60
2023-03-18T08:21:01.943Z,8.60
2023-03-18T08:23:29.341Z,8.70
2023-03-18T08:25:56.306Z,8.70
2023-03-18T08:28:23.812Z,8.70
2023-03-18T08:30:55.998Z,8.70
2023-03-18T08:33:27.167Z,8.70
2023-03-18T08:35:58.085Z,8.80
2023-03-18T08:38:25.760Z,8.80
2023-03-18T08:40:52.720Z,8.80
2023-03-18T08:43:22.309Z,8.90
2023-03-18T08:45:56.539Z,8.90
2023-03-18T08:48:25.757Z,8.80
2023-03-18T08:50:52.821Z,8.90
2023-03-18T08:53:19.898Z,8.90
2023-03-18T08:55:47.178Z,9.00
2023-03-18T08:58:14.326Z,9.10
2023-03-18T09:00:43.040Z,9.10
2023-03-18T09:03:10.452Z,9.20
2023-03-18T09:05:38.718Z,9.20
2023-03-18T09:08:06.657Z,9.20
2023-03-18T09:10:33.716Z,9.30
2023-03-18T09:13:01.021Z,9.40
2023-03-18T09:15:28.110Z,9.50
2023-03-18T09:18:10.451Z,9.40
2023-03-18T09:20:39.288Z,9.40
2023-03-18T09:23:06.844Z,9.50
2023-03-18T09:25:34.481Z,9.50
2023-03-18T09:28:01.984Z,9.40
2023-03-18T09:30:29.005Z,9.40
2023-03-18T09:32:56.800Z,9.50
2023-03-18T09:35:24.347Z,9.60
2023-03-18T09:37:52.072Z,9.70
2023-03-18T09:40:26.690Z,9.80
2023-03-18T09:43:28.452Z,9.80
2023-03-18T09:46:13.357Z,9.80
2023-03-18T09:49:17.191Z,9.80
2023-03-18T09:52:06.706Z,9.90
2023-03-18T09:55:02.756Z,10.00
2023-03-18T09:57:36.963Z,9.90
2023-03-18T10:00:05.302Z,9.80
2023-03-18T10:02:45.633Z,9.80
2023-03-18T10:05:19.808Z,9.80
2023-03-18T10:07:50.102Z,9.80
2023-03-18T10:10:23.525Z,9.80
2023-03-18T10:13:20.494Z,9.90
2023-03-18T10:15:56.849Z,9.90
2023-03-18T10:18:29.305Z,9.90
2023-03-18T10:21:21.376Z,9.90
2023-03-18T10:24:00.785Z,10.00
2023-03-18T10:26:31.307Z,10.00
2023-03-18T10:29:02.636Z,10.00
2023-03-18T10:31:37.519Z,10.10
2023-03-18T10:34:12.031Z,10.10
2023-03-18T10:36:55.584Z,10.10
2023-03-18T10:39:25.044Z,10.30
2023-03-18T10:41:54.486Z,10.30
2023-03-18T10:44:34.220Z,10.30
2023-03-18T10:47:10.487Z,10.30
2023-03-18T10:49:39.569Z,10.30
2023-03-18T10:52:37.532Z,10.30
2023-03-18T10:55:14.460Z,10.30
2023-03-18T10:57:41.715Z,10.30
2023-03-18T11:00:29.632Z,10.30
2023-03-18T11:02:57.239Z,10.20
2023-03-18T11:05:31.913Z,10.20
2023-03-18T11:08:01.557Z,10.10
2023-03-18T11:10:32.863Z,10.10
2023-03-18T11:13:02.447Z,10.10
2023-03-18T11:15:51.257Z,10.10
2023-03-18T11:18:25.205Z,10.10
2023-03-18T11:21:01.036Z,10.10
2023-03-18T11:23:56.430Z,10.10
2023-03-18T11:26:28.731Z,10.10
2023-03-18T11:29:05.002Z,10.20
2023-03-18T11:31:32.558Z,10.20
2023-03-18T11:34:00.623Z,10.20
2023-03-18T11:36:28.370Z,10.30
2023-03-18T11:39:06.329Z,10.40
2023-03-18T11:41:37.636Z,10.40
2023-03-18T11:44:08.084Z,10.50
2023-03-18T11:46:40.712Z,10.60
2023-03-18T11:49:14.162Z,10.40
2023-03-18T11:52:12.396Z,10.20
2023-03-18T11:55:00.362Z,10.30
2023-03-18T11:57:44.053Z,10.40
2023-03-18T12:00:32.092Z,10.50
2023-03-18T12:03:50.075Z,10.60
2023-03-18T12:06:23.239Z,10.70
2023-03-18T12:09:17.684Z,10.90
2023-03-18T12:11:57.317Z,11.40
2023-03-18T12:14:37.741Z,12.00
2023-03-18T12:17:20.738Z,12.90
2023-03-18T12:20:00.096Z,14.00
2023-03-18T12:22:52.752Z,14.70
2023-03-18T12:25:38.315Z,15.30
2023-03-18T12:28:26.099Z,15.90
2023-03-18T12:31:14.272Z,15.90
2023-03-18T12:33:57.851Z,15.20
2023-03-18T12:36:36.021Z,14.60
2023-03-18T12:39:48.287Z,14.20
2023-03-18T12:42:21.915Z,14.10
2023-03-18T12:44:59.487Z,14.00
2023-03-18T12:47:46.269Z,13.50
2023-03-18T12:50:16.112Z,13.30
2023-03-18T12:53:09.056Z,13.20
2023-03-18T12:55:55.486Z,13.00
2023-03-18T12:58:30.721Z,13.20
2023-03-18T13:01:09.803Z,13.70
2023-03-18T13:03:40.241Z,14.20
2023-03-18T13:06:41.460Z,14.40
2023-03-18T13:09:32.122Z,14.70
2023-03-18T13:12:07.792Z,15.70
2023-03-18T13:14:46.367Z,18.40
2023-03-18T13:17:17.268Z,20.10
2023-03-18T13:19:45.228Z,20.80
2023-03-18T13:22:35.214Z,20.60
2023-03-18T13:25:29.817Z,23.10
2023-03-18T13:28:06.058Z,23.70
2023-03-18T13:30:54.398Z,23.00
2023-03-18T13:33:38.913Z,21.70
2023-03-18T13:36:23.705Z,20.10
2023-03-18T13:38:54.532Z,18.40
2023-03-18T13:41:40.342Z,17.40
2023-03-18T13:44:17.451Z,16.10
2023-03-18T13:46:58.740Z,15.50
2023-03-18T13:49:29.975Z,15.30
2023-03-18T13:52:02.138Z,15.60
2023-03-18T13:54:37.866Z,16.50
2023-03-18T13:57:47.256Z,17.50
2023-03-18T14:00:25.488Z,18.30
2023-03-18T14:03:01.582Z,19.00
2023-03-18T14:05:40.554Z,19.40
2023-03-18T14:08:38.387Z,20.70
2023-03-18T14:11:17.376Z,22.10
2023-03-18T14:13:51.068Z,23.80
2023-03-18T14:16:23.260Z,24.50
2023-03-18T14:18:57.766Z,23.10
2023-03-18T14:21:28.604Z,21.60
2023-03-18T14:24:13.911Z,20.90
2023-03-18T14:26:41.377Z,19.80
2023-03-18T14:29:09.342Z,18.80
2023-03-18T14:31:39.811Z,17.90
2023-03-18T14:34:18.929Z,17.50
2023-03-18T14:37:14.685Z,17.10
2023-03-18T14:39:47.984Z,16.90
2023-03-18T14:42:56.782Z,16.90
2023-03-18T14:45:45.100Z,18.20
2023-03-18T14:48:19.429Z,20.30
2023-03-18T14:50:49.951Z,21.60
2023-03-18T14:53:26.802Z,23.40
2023-03-18T14:55:56.891Z,24.40
2023-03-18T14:58:25.833Z,24.40
2023-03-18T15:01:04.901Z,23.60
2023-03-18T15:03:32.545Z,23.80
2023-03-18T15:06:04.282Z,23.20
2023-03-18T15:08:47.803Z,23.30
2023-03-18T15:11:17.248Z,22.80
2023-03-18T15:13:45.126Z,22.10
2023-03-18T15:16:14.429Z,21.90
2023-03-18T15:18:41.388Z,21.10
2023-03-18T15:21:15.631Z,20.50
2023-03-18T15:23:51.218Z,19.70
2023-03-18T15:26:40.562Z,19.30
2023-03-18T15:29:33.194Z,19.50
2023-03-18T15:32:16.048Z,20.40
2023-03-18T15:34:46.118Z,20.30
2023-03-18T15:37:31.916Z,19.60
2023-03-18T15:40:14.413Z,18.60
2023-03-18T15:42:44.377Z,18.10
2023-03-18T15:45:18.872Z,17.60
2023-03-18T15:47:46.285Z,17.20
2023-03-18T15:50:19.251Z,15.90
2023-03-18T15:52:47.993Z,15.90
2023-03-18T15:55:47.314Z,15.80
2023-03-18T15:58:26.564Z,15.50
2023-03-18T16:00:55.464Z,15.30
2023-03-18T16:03:27.530Z,15.30
2023-03-18T16:05:55.278Z,15.10
2023-03-18T16:08:23.457Z,14.80
2023-03-18T16:10:56.610Z,14.80
2023-03-18T16:13:33.466Z,14.90
2023-03-18T16:16:01.140Z,15.50
2023-03-18T16:18:28.315Z,16.10
2023-03-18T16:20:55.253Z,16.10
2023-03-18T16:23:22.168Z,15.60
2023-03-18T16:25:51.936Z,15.80
2023-03-18T16:28:22.328Z,16.10
2023-03-18T16:30:52.492Z,15.70
2023-03-18T16:33:20.715Z,15.30
2023-03-18T16:35:59.084Z,15.10
2023-03-18T16:38:26.832Z,14.80
2023-03-18T16:40:54.904Z,14.40
2023-03-18T16:43:28.165Z,14.10
2023-03-18T16:46:00.566Z,13.60
2023-03-18T16:48:28.403Z,13.50
2023-03-18T16:50:57.426Z,13.10
2023-03-18T16:53:34.422Z,13.00
2023-03-18T16:56:03.839Z,12.80
2023-03-18T16:58:36.795Z,12.70
2023-03-18T17:01:07.667Z,12.60
2023-03-18T17:03:35.450Z,12.50
2023-03-18T17:06:02.498Z,12.40
2023-03-18T17:08:29.391Z,12.40
2023-03-18T17:10:59.391Z,12.30
2023-03-18T17:13:32.046Z,12.30
2023-03-18T17:15:59.306Z,12.20
2023-03-18T17:18:27.961Z,12.10
2023-03-18T17:20:55.393Z,11.90
2023-03-18T17:23:25.436Z,11.90
2023-03-18T17:26:02.546Z,11.90
2023-03-18T17:28:44.288Z,11.80
2023-03-18T17:31:12.642Z,11.80
2023-03-18T17:33:40.134Z,11.80
2023-03-18T17:36:08.070Z,11.70
2023-03-18T17:38:36.436Z,11.60
2023-03-18T17:41:05.787Z,11.50
2023-03-18T17:43:35.580Z,11.50
2023-03-18T17:46:03.808Z,11.50
2023-03-18T17:48:33.026Z,11.40
2023-03-18T17:51:09.282Z,11.30
2023-03-18T17:53:37.574Z,11.20
2023-03-18T17:56:10.789Z,11.10
2023-03-18T17:58:38.149Z,11.00
2023-03-18T18:01:13.259Z,11.10
2023-03-18T18:03:40.650Z,10.90
2023-03-18T18:06:11.791Z,11.00
2023-03-18T18:08:40.293Z,10.80
2023-03-18T18:11:24.372Z,10.80
2023-03-18T18:13:54.731Z,10.90
2023-03-18T18:16:21.893Z,11.00
2023-03-18T18:18:50.026Z,11.10
2023-03-18T18:21:20.213Z,11.10
2023-03-18T18:23:47.380Z,11.00
2023-03-18T18:26:24.202Z,10.90
2023-03-18T18:28:52.316Z,11.00
2023-03-18T18:31:20.850Z,11.10
2023-03-18T18:33:50.183Z,11.10
2023-03-18T18:36:18.176Z,11.10
2023-03-18T18:38:45.512Z,11.10
2023-03-18T18:41:12.481Z,11.20
2023-03-18T18:43:39.446Z,11.20
2023-03-18T18:46:17.856Z,11.20
2023-03-18T18:48:49.016Z,11.20
2023-03-18T18:51:22.633Z,11.20
2023-03-18T18:53:52.418Z,11.20
2023-03-18T18:56:23.601Z,11.20
2023-03-18T18:58:52.010Z,11.20
2023-03-18T19:01:20.679Z,11.30
2023-03-18T19:03:48.406Z,11.30
2023-03-18T19:06:27.586Z,11.20
2023-03-18T19:08:59.311Z,11.10
2023-03-18T19:11:29.274Z,11.20
2023-03-18T19:14:26.311Z,11.20
2023-03-18T19:16:55.666Z,11.20
2023-03-18T19:19:27.459Z,11.20
2023-03-18T19:21:54.797Z,11.20
2023-03-18T19:24:28.865Z,11.10
2023-03-18T19:26:58.515Z,11.10
2023-03-18T19:29:26.642Z,11.10
2023-03-18T19:31:54.946Z,11.10
2023-03-18T19:34:22.615Z,11.00
2023-03-18T19:36:56.183Z,11.00
2023-03-18T19:39:24.589Z,11.00
2023-03-18T19:41:51.901Z,11.00
2023-03-18T19:44:25.417Z,11.00
2023-03-18T19:47:01.535Z,11.00
2023-03-18T19:49:37.733Z,11.00
2023-03-18T19:52:37.281Z,10.90
2023-03-18T19:55:08.368Z,10.90
2023-03-18T19:57:37.191Z,10.80
2023-03-18T20:00:05.934Z,10.80
2023-03-18T20:02:34.901Z,10.90
2023-03-18T20:05:07.690Z,10.90
2023-03-18T20:07:34.611Z,10.90
2023-03-18T20:10:01.572Z,10.90
2023-03-18T20:12:48.445Z,11.00
2023-03-18T20:15:22.215Z,11.00
2023-03-18T20:17:51.839Z,11.00
2023-03-18T20:20:24.731Z,11.00
2023-03-18T20:22:55.909Z,11.00
2023-03-18T20:25:24.652Z,11.00
2023-03-18T20:27:53.809Z,11.00
2023-03-18T20:30:27.868Z,11.00
2023-03-18T20:32:55.162Z,10.80
2023-03-18T20:35:24.986Z,10.90
2023-03-18T20:37:51.933Z,10.90
2023-03-18T20:40:27.261Z,10.70
2023-03-18T20:42:54.998Z,10.80
2023-03-18T20:45:23.786Z,10.90
2023-03-18T20:47:52.091Z,10.90
2023-03-18T20:50:22.761Z,10.80
2023-03-18T20:52:49.782Z,10.80
2023-03-18T20:55:25.442Z,10.90
2023-03-18T20:57:53.618Z,10.90
2023-03-18T21:00:24.018Z,10.90
2023-03-18T21:02:53.854Z,10.90
2023-03-18T21:05:21.804Z,11.00
2023-03-18T21:07:49.108Z,11.00
2023-03-18T21:10:22.016Z,10.90
2023-03-18T21:12:49.790Z,11.00
2023-03-18T21:15:23.029Z,11.00
2023-03-18T21:17:50.581Z,11.00
2023-03-18T21:20:26.604Z,11.00
2023-03-18T21:22:54.678Z,11.00
2023-03-18T21:25:24.518Z,10.90
2023-03-18T21:27:52.656Z,10.90
2023-03-18T21:30:22.076Z,10.90
2023-03-18T21:32:50.981Z,10.90
2023-03-18T21:35:24.223Z,10.90
2023-03-18T21:37:52.142Z,10.80
2023-03-18T21:40:22.525Z,10.90
2023-03-18T21:42:51.039Z,10.80
2023-03-18T21:45:22.954Z,10.80
2023-03-18T21:47:50.088Z,10.80
2023-03-18T21:50:21.546Z,10.70
2023-03-18T21:52:49.330Z,10.60
2023-03-18T21:55:17.178Z,10.50
2023-03-18T21:57:44.263Z,10.40
2023-03-18T22:00:21.147Z,10.30
2023-03-18T22:02:48.787Z,10.20
2023-03-18T22:05:22.937Z,10.10
2023-03-18T22:07:50.967Z,10.10
2023-03-18T22:10:23.273Z,10.10
2023-03-18T22:12:50.965Z,10.10
2023-03-18T22:15:36.626Z,10.10
2023-03-18T22:18:04.114Z,10.00
2023-03-18T22:20:31.745Z,10.00
2023-03-18T22:22:58.829Z,9.90
2023-03-18T22:25:30.006Z,9.90
2023-03-18T22:27:58.366Z,9.90
2023-03-18T22:30:27.198Z,10.00
2023-03-18T22:32:54.902Z,9.90
2023-03-18T22:35:24.301Z,9.90
2023-03-18T22:37:51.762Z,9.90
2023-03-18T22:40:23.229Z,9.90
2023-03-18T22:42:57.396Z,9.90
2023-03-18T22:45:30.391Z,9.90
2023-03-18T22:47:59.405Z,9.70
2023-03-18T22:50:30.143Z,9.60
2023-03-18T22:53:03.806Z,9.50
2023-03-18T22:55:41.084Z,9.50
2023-03-18T22:58:14.161Z,9.50
2023-03-18T23:00:43.747Z,9.60
2023-03-18T23:03:26.456Z,9.50
2023-03-18T23:05:55.265Z,9.40
2023-03-18T23:08:22.420Z,9.40
2023-03-18T23:10:51.565Z,9.40
2023-03-18T23:13:21.782Z,9.40
2023-03-18T23:15:48.958Z,9.40
2023-03-18T23:18:17.620Z,9.40
2023-03-18T23:20:46.485Z,9.30
2023-03-18T23:23:14.601Z,9.40
2023-03-18T23:25:43.699Z,9.50
2023-03-18T23:28:11.349Z,9.40
2023-03-18T23:30:41.180Z,9.40
2023-03-18T23:33:09.692Z,9.50
2023-03-18T23:35:38.217Z,9.40
2023-03-18T23:38:07.991Z,9.40
2023-03-18T23:40:35.073Z,9.40
2023-03-18T23:43:02.371Z,9.30
2023-03-18T23:45:29.579Z,9.30
2023-03-18T23:47:56.579Z,9.20
2023-03-18T23:50:23.673Z,9.20
2023-03-18T23:52:50.953Z,9.10
2023-03-18T23:55:33.560Z,9.10
2023-03-18T23:58:01.439Z,9.00
